Ripon, Wisconsin
Current Conditions -  °F | °C
As of 9:53 PM on Thursday 20 Nov 2014 (Local Time) from KOSH Reporting Station
Clear Clear  
Wind Chill: -1°   Ceiling: Unl
Heat Index:   Visibility: 10mi
Dew Point: -1°   Wind: 6mph
Humidity: 64%   Direction: 270°W
Pressure: 30.23"   Gusts: NA
Location:  43.85°N, 88.84°W
Report Text: KOSH 210353Z 27005KT 10SM CLR M13/M18 A3023 RMK AO2 SLP262 T11281183
Loading
Personal Weather Stations






























Interactive Weather Map New forecast layout! Learn more

10-Day Weather Forecast

Advertisements
Track Severe Weather on mobile